Messwerte Midway Islands

Temperatur

Temperatur
°C
1573920000 5.00 5.00 19
1573923600 6.00 6.00 19
1573927200 7.00 7.00 18
1573930800 8.00 8.00 19
1573934400 9.00 9.00
1573938000 10.00 10.00 22
1573941600 11.00 11.00 23
1573945200 12.00 12.00 23
1573948800 13.00 13.00 23
1573952400 14.00 14.00 23
1573956000 15.00 15.00
1573959600 16.00 16.00 23
1573963200 17.00 17.00 22
1573966800 18.00 18.00 22
1573970400 19.00 19.00 21
1573974000 20.00 20.00 22
1573977600 21.00 21.00 21
1573981200 22.00 22.00 22
1573984800 23.00 23.00 22
1573988400 0.00 0.00 22
1573992000 1.00 1.00 22
1573995600 2.00 2.00 22
1573999200 3.00 3.00 22
1574002800 4.00 4.00 22

Aktuellste Messwerte

Wettercharakter
Wetter: wechselnd bewölkt
Temperatur
22 °C
Feuchtigkeit
55 %
Wind
15 km/hWindrichtung: Süd
Luftdruck
1020 hPa
Messzeit: 17. November 2019, 5.00Datenquelle: METAR

Wind

Windrichtung Böen Mittelwind
° km/h km/h
1573920000 5.00 4.00 - 5.00 70° 5
1573923600 6.00 5.00 - 6.00 50° 5
1573927200 7.00 6.00 - 7.00 80° 10
1573930800 8.00 7.00 - 8.00 30° 5
1573934400 9.00 8.00 - 9.00
1573938000 10.00 9.00 - 10.00 110° 5
1573941600 11.00 10.00 - 11.00 90° 5
1573945200 12.00 11.00 - 12.00 100° 10
1573948800 13.00 12.00 - 13.00 110° 10
1573952400 14.00 13.00 - 14.00 120° 10
1573956000 15.00 14.00 - 15.00
1573959600 16.00 15.00 - 16.00 120° 10
1573963200 17.00 16.00 - 17.00 120° 5
1573966800 18.00 17.00 - 18.00 130° 10
1573970400 19.00 18.00 - 19.00 110° 10
1573974000 20.00 19.00 - 20.00 110° 10
1573977600 21.00 20.00 - 21.00 120° 10
1573981200 22.00 21.00 - 22.00 130° 15
1573984800 23.00 22.00 - 23.00 130° 10
1573988400 0.00 23.00 - 0.00 120° 20
1573992000 1.00 0.00 - 1.00 160° 10
1573995600 2.00 1.00 - 2.00 150° 10
1573999200 3.00 2.00 - 3.00 160° 10
1574002800 4.00 3.00 - 4.00 130° 10

Ihre Wetterstation

Fehlt Ihre Wetterstation auf unserem Portal?

Schreiben Sie an network@meteonews.ch